Terminal Aerodrome Forecast
Issued by NWS

Home | Current Version | Previous Version | Text Only | Print | Product List | Glossary On
Versions: 1 2 3 4 5 6 7 8 9 10 11 12 13 14
000
FTUS44 KJAN 271138
TAFGTR
TAF
KGTR 271138Z 2712/2812 00000KT 1/2SM FG BKN003
     FM271300 10004KT 6SM BR HZ SCT010 SCT030
     FM271630 10007KT P6SM FEW050 FEW250
     FM280000 07004KT P6SM FEW250=

USA.gov is the U.S. government's official web portal to all federal, state and local government web resources and services.